createdAt,value
2019-03-31T00:03:59.119Z,8.83
2019-03-31T00:08:06.000Z,8.95
2019-03-31T00:12:11.734Z,8.94
2019-03-31T00:16:17.444Z,8.07
2019-03-31T00:20:23.771Z,8.07
2019-03-31T00:24:29.459Z,7.80
2019-03-31T00:28:35.422Z,8.42
2019-03-31T00:32:41.134Z,8.08
2019-03-31T00:36:46.882Z,8.50
2019-03-31T00:40:52.641Z,7.44
2019-03-31T00:44:58.467Z,7.39
2019-03-31T00:49:04.236Z,8.05
2019-03-31T00:53:10.007Z,8.00
2019-03-31T00:57:17.196Z,7.77
2019-03-31T01:01:42.513Z,7.86
2019-03-31T01:05:48.521Z,7.53
2019-03-31T01:14:33.354Z,7.54
2019-03-31T01:18:39.029Z,7.47
2019-03-31T01:22:44.711Z,7.75
2019-03-31T01:26:50.551Z,8.13
2019-03-31T01:30:56.402Z,8.28
2019-03-31T01:35:04.227Z,8.02
2019-03-31T01:39:10.327Z,7.94
2019-03-31T01:43:16.419Z,8.12
2019-03-31T01:47:22.766Z,8.19
2019-03-31T01:51:28.575Z,8.13
2019-03-31T01:55:34.372Z,7.87
2019-03-31T01:59:40.134Z,8.25
2019-03-31T02:03:46.014Z,7.85
2019-03-31T02:07:51.869Z,8.13
2019-03-31T02:11:57.489Z,8.24
2019-03-31T02:16:03.305Z,8.14
2019-03-31T02:20:09.259Z,8.31
2019-03-31T02:24:15.043Z,8.39
2019-03-31T02:28:20.966Z,8.29
2019-03-31T02:32:26.639Z,8.42
2019-03-31T02:36:32.804Z,8.51
2019-03-31T02:40:39.429Z,8.64
2019-03-31T02:44:45.353Z,8.70
2019-03-31T02:48:53.126Z,8.79
2019-03-31T02:52:58.899Z,8.71
2019-03-31T02:57:15.949Z,8.52
2019-03-31T03:01:33.231Z,8.62
2019-03-31T03:06:00.790Z,8.62
2019-03-31T03:10:06.811Z,8.60
2019-03-31T03:14:13.443Z,8.39
2019-03-31T03:22:49.367Z,8.32
2019-03-31T03:26:55.062Z,8.33
2019-03-31T03:31:01.176Z,8.31
2019-03-31T03:35:08.018Z,8.41
2019-03-31T03:39:13.818Z,8.37
2019-03-31T03:43:19.732Z,8.42
2019-03-31T03:47:25.428Z,8.37
2019-03-31T03:51:42.766Z,8.28
2019-03-31T03:55:48.599Z,8.28
2019-03-31T03:59:54.420Z,8.30
2019-03-31T04:04:00.436Z,8.35
2019-03-31T04:08:06.186Z,8.28
2019-03-31T04:12:11.993Z,8.28
2019-03-31T04:16:17.908Z,8.14
2019-03-31T04:20:23.847Z,8.07
2019-03-31T04:24:29.703Z,8.08
2019-03-31T04:28:35.397Z,8.05
2019-03-31T04:32:41.109Z,8.16
2019-03-31T04:36:46.833Z,8.29
2019-03-31T04:40:52.527Z,8.16
2019-03-31T04:44:58.250Z,8.16
2019-03-31T04:49:05.146Z,8.20
2019-03-31T04:53:12.447Z,8.13
2019-03-31T04:57:18.228Z,8.09
2019-03-31T05:01:24.044Z,7.99
2019-03-31T05:05:30.654Z,7.98
2019-03-31T05:09:36.416Z,8.01
2019-03-31T05:18:07.052Z,7.88
2019-03-31T05:22:12.845Z,7.77
2019-03-31T05:26:18.707Z,7.77
2019-03-31T05:30:24.525Z,7.81
2019-03-31T05:34:30.184Z,7.71
2019-03-31T05:38:35.840Z,7.89
2019-03-31T05:42:41.542Z,8.03
2019-03-31T05:46:47.254Z,7.93
2019-03-31T05:51:11.917Z,7.85
2019-03-31T05:55:18.946Z,7.81
2019-03-31T05:59:30.630Z,7.91
2019-03-31T06:03:36.338Z,8.02
2019-03-31T06:07:42.456Z,8.14
2019-03-31T06:11:48.184Z,8.27
2019-03-31T06:15:53.954Z,8.13
2019-03-31T06:19:59.627Z,8.22
2019-03-31T06:24:05.378Z,8.34
2019-03-31T06:28:11.135Z,8.51
2019-03-31T06:32:17.276Z,8.57
2019-03-31T06:36:23.049Z,8.69
2019-03-31T06:40:30.494Z,8.76
2019-03-31T06:44:38.150Z,8.86
2019-03-31T06:48:49.159Z,8.87
2019-03-31T06:52:54.903Z,9.04
2019-03-31T06:57:02.320Z,8.94
2019-03-31T07:01:08.096Z,8.94
2019-03-31T07:05:14.103Z,8.98
2019-03-31T07:09:19.879Z,9.05
2019-03-31T07:13:25.575Z,8.98
2019-03-31T07:17:31.316Z,9.20
2019-03-31T07:21:37.075Z,9.40
2019-03-31T07:25:42.880Z,9.75
2019-03-31T07:29:48.583Z,9.98
2019-03-31T07:33:54.415Z,9.83
2019-03-31T07:38:00.118Z,9.77
2019-03-31T07:42:17.060Z,9.50
2019-03-31T07:46:22.975Z,9.50
2019-03-31T07:50:28.837Z,9.28
2019-03-31T07:54:34.563Z,8.72
2019-03-31T07:58:40.287Z,8.82
2019-03-31T08:02:46.056Z,8.54
2019-03-31T08:06:51.733Z,8.50
2019-03-31T08:10:57.773Z,8.58
2019-03-31T08:15:03.477Z,8.31
2019-03-31T08:19:09.135Z,8.16
2019-03-31T08:23:14.901Z,7.99
2019-03-31T08:27:21.632Z,8.01
2019-03-31T08:31:27.367Z,7.85
2019-03-31T08:35:46.238Z,7.75
2019-03-31T08:39:59.554Z,7.52
2019-03-31T08:44:05.393Z,7.42
2019-03-31T08:48:11.382Z,7.35
2019-03-31T08:52:17.268Z,7.66
2019-03-31T08:56:23.653Z,7.75
2019-03-31T09:00:48.384Z,7.92
2019-03-31T09:04:58.332Z,8.06
2019-03-31T09:09:25.375Z,8.07
2019-03-31T09:13:31.134Z,8.10
2019-03-31T09:17:36.826Z,8.19
2019-03-31T09:21:42.513Z,8.02
2019-03-31T09:25:48.517Z,8.19
2019-03-31T09:29:54.203Z,8.28
2019-03-31T09:34:00.071Z,8.34
2019-03-31T09:38:06.752Z,8.81
2019-03-31T09:42:13.062Z,9.09
2019-03-31T09:46:18.914Z,8.44
2019-03-31T09:50:24.686Z,8.54
2019-03-31T09:54:30.505Z,8.76
2019-03-31T09:58:36.217Z,8.68
2019-03-31T10:02:42.312Z,8.69
2019-03-31T10:06:48.161Z,9.01
2019-03-31T10:10:53.938Z,9.01
2019-03-31T10:14:59.769Z,9.38
2019-03-31T10:19:05.514Z,10.04
2019-03-31T10:23:11.231Z,10.86
2019-03-31T10:27:17.007Z,10.61
2019-03-31T10:31:22.776Z,10.48
2019-03-31T10:35:28.853Z,10.52
2019-03-31T10:39:34.648Z,10.52
2019-03-31T10:44:01.590Z,10.35
2019-03-31T10:48:19.519Z,11.25
2019-03-31T10:52:20.765Z,11.03
2019-03-31T10:56:26.571Z,10.86
2019-03-31T11:00:36.707Z,11.00
2019-03-31T11:04:42.548Z,11.29
2019-03-31T11:08:48.243Z,11.93
2019-03-31T11:13:04.963Z,12.04
2019-03-31T11:17:10.736Z,11.75
2019-03-31T11:21:35.916Z,11.78
2019-03-31T11:25:43.388Z,12.56
2019-03-31T11:29:49.091Z,12.63
2019-03-31T11:33:54.801Z,12.96
2019-03-31T11:38:00.586Z,12.17
2019-03-31T11:42:06.570Z,12.53
2019-03-31T11:46:12.287Z,13.29
2019-03-31T11:54:53.852Z,13.56
2019-03-31T11:58:59.537Z,13.11
2019-03-31T12:03:05.298Z,13.98
2019-03-31T12:07:11.239Z,13.35
2019-03-31T12:11:17.306Z,13.61
2019-03-31T12:15:22.991Z,13.96
2019-03-31T12:19:29.872Z,14.19
2019-03-31T12:23:35.542Z,13.81
2019-03-31T12:27:41.249Z,13.67
2019-03-31T12:31:47.005Z,14.65
2019-03-31T12:35:52.834Z,15.00
2019-03-31T12:39:58.536Z,14.70
2019-03-31T12:44:09.525Z,14.04
2019-03-31T12:48:18.441Z,14.33
2019-03-31T12:52:25.100Z,15.06
2019-03-31T12:56:31.092Z,14.90
2019-03-31T13:00:36.810Z,15.63
2019-03-31T13:04:43.277Z,14.91
2019-03-31T13:08:49.090Z,14.85
2019-03-31T13:12:54.852Z,15.27
2019-03-31T13:17:01.622Z,14.51
2019-03-31T13:21:13.276Z,14.97
2019-03-31T13:25:18.997Z,15.01
2019-03-31T13:29:24.829Z,14.53
2019-03-31T13:33:30.579Z,14.31
2019-03-31T13:37:37.229Z,15.66
2019-03-31T13:42:01.985Z,15.59
2019-03-31T13:46:07.774Z,14.95
2019-03-31T13:50:14.467Z,14.70
2019-03-31T13:54:20.239Z,14.45
2019-03-31T13:58:26.228Z,15.24
2019-03-31T14:03:13.623Z,14.78
2019-03-31T14:07:19.319Z,15.36
2019-03-31T14:11:25.015Z,15.07
2019-03-31T14:15:31.064Z,16.05
2019-03-31T14:19:36.737Z,15.64
2019-03-31T14:23:43.938Z,16.28
2019-03-31T14:28:09.029Z,16.04
2019-03-31T14:32:14.715Z,15.53
2019-03-31T14:36:39.343Z,16.12
2019-03-31T14:40:45.109Z,15.31
2019-03-31T14:44:50.869Z,16.08
2019-03-31T14:53:13.706Z,15.43
2019-03-31T14:57:19.390Z,15.72
2019-03-31T15:01:25.201Z,16.65
2019-03-31T15:05:30.958Z,14.98
2019-03-31T15:09:36.624Z,15.20
2019-03-31T15:13:42.330Z,16.01
2019-03-31T15:17:48.644Z,15.45
2019-03-31T15:21:54.462Z,15.54
2019-03-31T15:26:00.375Z,14.36
2019-03-31T15:30:06.683Z,15.78
2019-03-31T15:34:12.400Z,15.27
2019-03-31T15:38:18.177Z,15.40
2019-03-31T15:42:23.939Z,15.86
2019-03-31T15:46:29.642Z,15.23
2019-03-31T15:50:35.381Z,15.91
2019-03-31T15:54:41.064Z,15.45
2019-03-31T15:58:46.750Z,15.81
2019-03-31T16:02:52.619Z,15.22
2019-03-31T16:07:00.757Z,14.70
2019-03-31T16:11:05.987Z,14.50
2019-03-31T16:15:11.752Z,15.09
2019-03-31T16:19:16.968Z,15.13
2019-03-31T16:23:34.589Z,14.04
2019-03-31T16:27:48.125Z,13.90
2019-03-31T16:31:53.317Z,13.76
2019-03-31T16:35:58.544Z,13.19
2019-03-31T16:44:25.729Z,12.82
2019-03-31T16:48:31.249Z,12.44
2019-03-31T16:52:36.411Z,13.25
2019-03-31T16:57:01.850Z,13.21
2019-03-31T17:05:23.690Z,12.88
2019-03-31T17:09:29.036Z,13.54
2019-03-31T17:13:34.283Z,12.81
2019-03-31T17:17:39.662Z,12.61
2019-03-31T17:21:45.398Z,11.98
2019-03-31T17:25:50.514Z,12.09
2019-03-31T17:29:55.711Z,11.70
2019-03-31T17:34:00.860Z,11.81
2019-03-31T17:38:06.081Z,11.74
2019-03-31T17:42:11.245Z,10.83
2019-03-31T17:46:16.400Z,10.95
2019-03-31T17:50:21.569Z,10.69
2019-03-31T17:54:26.746Z,10.68
2019-03-31T17:58:31.949Z,10.65
2019-03-31T18:02:37.206Z,10.55
2019-03-31T18:06:42.447Z,10.44
2019-03-31T18:10:47.611Z,10.35
2019-03-31T18:14:52.943Z,10.18
2019-03-31T18:18:58.158Z,10.30
2019-03-31T18:23:03.374Z,10.21
2019-03-31T18:27:15.681Z,10.18
2019-03-31T18:31:21.021Z,10.00
2019-03-31T18:35:26.449Z,9.84
2019-03-31T18:39:31.627Z,9.87
2019-03-31T18:43:50.793Z,9.90
2019-03-31T18:47:51.063Z,9.71
2019-03-31T18:51:56.238Z,9.70
2019-03-31T18:56:21.025Z,9.61
2019-03-31T19:00:45.135Z,9.65
2019-03-31T19:05:09.386Z,9.53
2019-03-31T19:09:33.710Z,9.42
2019-03-31T19:13:57.871Z,9.29
2019-03-31T19:18:22.142Z,9.20
2019-03-31T19:22:49.307Z,9.15
2019-03-31T19:31:51.213Z,8.93
2019-03-31T19:36:35.913Z,8.95
2019-03-31T19:41:13.053Z,8.94
2019-03-31T19:45:31.907Z,8.82
2019-03-31T19:49:57.653Z,8.91
2019-03-31T19:54:21.890Z,8.87
2019-03-31T19:58:46.601Z,8.76
2019-03-31T20:02:58.866Z,8.77
2019-03-31T20:07:23.037Z,8.72
2019-03-31T20:11:47.259Z,8.69
2019-03-31T20:16:11.614Z,8.63
2019-03-31T20:20:35.829Z,8.57
2019-03-31T20:24:50.998Z,8.53
2019-03-31T20:29:01.671Z,8.50
2019-03-31T20:33:26.163Z,8.47
2019-03-31T20:37:50.333Z,8.33
2019-03-31T20:42:14.616Z,8.32
2019-03-31T20:46:19.965Z,8.28
2019-03-31T20:50:25.161Z,8.36
2019-03-31T20:54:33.002Z,8.18
2019-03-31T20:58:42.621Z,8.15
2019-03-31T21:02:48.185Z,8.18
2019-03-31T21:06:55.642Z,8.08
2019-03-31T21:11:00.868Z,8.17
2019-03-31T21:15:06.240Z,8.02
2019-03-31T21:19:30.924Z,8.05
2019-03-31T21:23:36.276Z,7.87
2019-03-31T21:27:41.528Z,7.88
2019-03-31T21:41:35.209Z,7.62
2019-03-31T21:45:40.704Z,7.58
2019-03-31T21:49:58.380Z,7.48
2019-03-31T21:54:05.413Z,7.42
2019-03-31T21:58:25.358Z,7.37
2019-03-31T22:02:37.170Z,7.38
2019-03-31T22:06:44.739Z,7.26
2019-03-31T22:10:52.242Z,7.26
2019-03-31T22:14:57.502Z,7.16
2019-03-31T22:19:02.644Z,7.09
2019-03-31T22:23:07.972Z,7.03
2019-03-31T22:27:34.055Z,6.97
2019-03-31T22:36:25.677Z,6.87
2019-03-31T22:40:31.106Z,6.72
2019-03-31T22:53:12.284Z,6.56
2019-03-31T23:15:07.355Z,6.18
2019-03-31T23:19:12.726Z,6.09
2019-03-31T23:23:18.013Z,6.11
2019-03-31T23:27:23.505Z,6.03
2019-03-31T23:31:29.008Z,5.91
2019-03-31T23:35:34.429Z,5.88
2019-03-31T23:40:00.620Z,5.82
2019-03-31T23:44:07.108Z,5.79
2019-03-31T23:48:12.415Z,5.66
2019-03-31T23:52:17.794Z,5.52
2019-03-31T23:56:26.480Z,5.40
